sensor_id;sensor_type;location;lat;lon;timestamp;P1;durP1;ratioP1;P2;durP2;ratioP2
67997;SDS011;54773;53.388;-1.504;2023-04-22T00:01:09;42.50;;;20.20;;
67997;SDS011;54773;53.388;-1.504;2023-04-22T00:03:53;38.83;;;20.13;;
67997;SDS011;54773;53.388;-1.504;2023-04-22T00:06:37;35.05;;;18.52;;
67997;SDS011;54773;53.388;-1.504;2023-04-22T00:09:21;30.07;;;15.53;;
67997;SDS011;54773;53.388;-1.504;2023-04-22T00:12:05;33.08;;;17.30;;
67997;SDS011;54773;53.388;-1.504;2023-04-22T00:14:49;30.77;;;17.38;;
67997;SDS011;54773;53.388;-1.504;2023-04-22T00:17:33;29.45;;;17.33;;
67997;SDS011;54773;53.388;-1.504;2023-04-22T00:20:18;28.48;;;15.35;;
67997;SDS011;54773;53.388;-1.504;2023-04-22T00:23:04;31.30;;;16.92;;
67997;SDS011;54773;53.388;-1.504;2023-04-22T00:25:48;32.85;;;17.52;;
67997;SDS011;54773;53.388;-1.504;2023-04-22T00:28:33;29.45;;;17.08;;
67997;SDS011;54773;53.388;-1.504;2023-04-22T00:31:17;28.00;;;17.02;;
67997;SDS011;54773;53.388;-1.504;2023-04-22T00:34:01;29.77;;;16.27;;
67997;SDS011;54773;53.388;-1.504;2023-04-22T00:36:45;28.80;;;15.70;;
67997;SDS011;54773;53.388;-1.504;2023-04-22T00:39:28;28.10;;;15.20;;
67997;SDS011;54773;53.388;-1.504;2023-04-22T00:42:13;31.05;;;16.40;;
67997;SDS011;54773;53.388;-1.504;2023-04-22T00:44:57;29.52;;;16.13;;
67997;SDS011;54773;53.388;-1.504;2023-04-22T00:47:46;29.67;;;16.90;;
67997;SDS011;54773;53.388;-1.504;2023-04-22T00:50:30;31.35;;;17.73;;
67997;SDS011;54773;53.388;-1.504;2023-04-22T00:53:14;31.23;;;18.88;;
67997;SDS011;54773;53.388;-1.504;2023-04-22T00:55:59;30.45;;;17.95;;
67997;SDS011;54773;53.388;-1.504;2023-04-22T00:58:43;26.88;;;16.20;;
67997;SDS011;54773;53.388;-1.504;2023-04-22T01:01:27;30.63;;;17.15;;
67997;SDS011;54773;53.388;-1.504;2023-04-22T01:04:12;27.33;;;17.25;;
67997;SDS011;54773;53.388;-1.504;2023-04-22T01:06:57;30.05;;;18.17;;
67997;SDS011;54773;53.388;-1.504;2023-04-22T01:09:42;28.13;;;17.70;;
67997;SDS011;54773;53.388;-1.504;2023-04-22T01:12:26;25.63;;;16.75;;
67997;SDS011;54773;53.388;-1.504;2023-04-22T01:15:10;27.35;;;17.30;;
67997;SDS011;54773;53.388;-1.504;2023-04-22T01:17:54;28.53;;;16.47;;
67997;SDS011;54773;53.388;-1.504;2023-04-22T01:20:39;24.65;;;15.65;;
67997;SDS011;54773;53.388;-1.504;2023-04-22T01:23:23;28.55;;;16.90;;
67997;SDS011;54773;53.388;-1.504;2023-04-22T01:26:08;30.48;;;16.50;;
67997;SDS011;54773;53.388;-1.504;2023-04-22T01:28:52;30.70;;;17.15;;
67997;SDS011;54773;53.388;-1.504;2023-04-22T01:31:36;31.33;;;16.95;;
67997;SDS011;54773;53.388;-1.504;2023-04-22T01:34:21;29.38;;;16.92;;
67997;SDS011;54773;53.388;-1.504;2023-04-22T01:37:05;30.10;;;17.05;;
67997;SDS011;54773;53.388;-1.504;2023-04-22T01:39:50;36.08;;;17.30;;
67997;SDS011;54773;53.388;-1.504;2023-04-22T01:42:34;31.67;;;17.60;;
67997;SDS011;54773;53.388;-1.504;2023-04-22T01:45:19;33.70;;;18.73;;
67997;SDS011;54773;53.388;-1.504;2023-04-22T01:48:03;32.60;;;17.35;;
67997;SDS011;54773;53.388;-1.504;2023-04-22T01:50:49;33.15;;;17.90;;
67997;SDS011;54773;53.388;-1.504;2023-04-22T01:53:33;32.57;;;16.80;;
67997;SDS011;54773;53.388;-1.504;2023-04-22T01:56:19;27.17;;;15.27;;
67997;SDS011;54773;53.388;-1.504;2023-04-22T01:59:03;33.67;;;17.65;;
67997;SDS011;54773;53.388;-1.504;2023-04-22T02:01:47;28.33;;;15.50;;
67997;SDS011;54773;53.388;-1.504;2023-04-22T02:04:32;30.63;;;15.75;;
67997;SDS011;54773;53.388;-1.504;2023-04-22T02:07:15;26.55;;;15.07;;
67997;SDS011;54773;53.388;-1.504;2023-04-22T02:09:59;29.17;;;14.87;;
67997;SDS011;54773;53.388;-1.504;2023-04-22T02:12:44;27.73;;;16.20;;
67997;SDS011;54773;53.388;-1.504;2023-04-22T02:15:29;30.00;;;14.55;;
67997;SDS011;54773;53.388;-1.504;2023-04-22T02:18:13;23.42;;;13.25;;
67997;SDS011;54773;53.388;-1.504;2023-04-22T02:21:00;19.15;;;12.23;;
67997;SDS011;54773;53.388;-1.504;2023-04-22T02:26:29;19.65;;;10.68;;
67997;SDS011;54773;53.388;-1.504;2023-04-22T02:29:13;19.17;;;11.13;;
67997;SDS011;54773;53.388;-1.504;2023-04-22T02:31:59;18.38;;;11.80;;
67997;SDS011;54773;53.388;-1.504;2023-04-22T02:34:43;18.77;;;11.97;;
67997;SDS011;54773;53.388;-1.504;2023-04-22T02:37:26;20.40;;;11.37;;
67997;SDS011;54773;53.388;-1.504;2023-04-22T02:40:10;20.63;;;11.80;;
67997;SDS011;54773;53.388;-1.504;2023-04-22T02:42:55;21.48;;;12.48;;
67997;SDS011;54773;53.388;-1.504;2023-04-22T02:45:39;19.50;;;12.20;;
67997;SDS011;54773;53.388;-1.504;2023-04-22T02:48:23;18.95;;;12.07;;
67997;SDS011;54773;53.388;-1.504;2023-04-22T02:51:10;19.10;;;11.52;;
67997;SDS011;54773;53.388;-1.504;2023-04-22T02:53:54;21.38;;;12.50;;
67997;SDS011;54773;53.388;-1.504;2023-04-22T02:56:38;18.45;;;12.13;;
67997;SDS011;54773;53.388;-1.504;2023-04-22T02:59:22;18.10;;;11.00;;
67997;SDS011;54773;53.388;-1.504;2023-04-22T03:02:06;19.67;;;10.93;;
67997;SDS011;54773;53.388;-1.504;2023-04-22T03:04:52;19.30;;;11.02;;
67997;SDS011;54773;53.388;-1.504;2023-04-22T03:07:40;20.45;;;10.95;;
67997;SDS011;54773;53.388;-1.504;2023-04-22T03:10:24;19.92;;;11.32;;
67997;SDS011;54773;53.388;-1.504;2023-04-22T03:13:08;18.33;;;11.32;;
67997;SDS011;54773;53.388;-1.504;2023-04-22T03:15:52;15.93;;;10.43;;
67997;SDS011;54773;53.388;-1.504;2023-04-22T03:18:36;18.33;;;10.45;;
67997;SDS011;54773;53.388;-1.504;2023-04-22T03:21:21;18.00;;;10.77;;
67997;SDS011;54773;53.388;-1.504;2023-04-22T03:24:05;16.90;;;10.10;;
67997;SDS011;54773;53.388;-1.504;2023-04-22T03:26:49;16.52;;;9.88;;
67997;SDS011;54773;53.388;-1.504;2023-04-22T03:29:33;18.38;;;10.82;;
67997;SDS011;54773;53.388;-1.504;2023-04-22T03:32:17;17.27;;;9.40;;
67997;SDS011;54773;53.388;-1.504;2023-04-22T03:35:01;19.50;;;10.23;;
67997;SDS011;54773;53.388;-1.504;2023-04-22T03:37:45;16.47;;;9.83;;
67997;SDS011;54773;53.388;-1.504;2023-04-22T03:40:29;17.47;;;9.97;;
67997;SDS011;54773;53.388;-1.504;2023-04-22T03:43:13;16.10;;;9.30;;
67997;SDS011;54773;53.388;-1.504;2023-04-22T03:45:58;17.35;;;10.23;;
67997;SDS011;54773;53.388;-1.504;2023-04-22T03:48:42;17.73;;;9.90;;
67997;SDS011;54773;53.388;-1.504;2023-04-22T03:51:26;17.98;;;9.90;;
67997;SDS011;54773;53.388;-1.504;2023-04-22T03:54:11;15.48;;;9.18;;
67997;SDS011;54773;53.388;-1.504;2023-04-22T03:56:55;17.37;;;10.03;;
67997;SDS011;54773;53.388;-1.504;2023-04-22T03:59:39;16.53;;;9.93;;
67997;SDS011;54773;53.388;-1.504;2023-04-22T04:02:23;18.17;;;10.27;;
67997;SDS011;54773;53.388;-1.504;2023-04-22T04:05:07;16.70;;;10.20;;
67997;SDS011;54773;53.388;-1.504;2023-04-22T04:07:53;19.27;;;11.05;;
67997;SDS011;54773;53.388;-1.504;2023-04-22T04:10:37;18.25;;;11.10;;
67997;SDS011;54773;53.388;-1.504;2023-04-22T04:13:21;18.60;;;11.17;;
67997;SDS011;54773;53.388;-1.504;2023-04-22T04:16:05;21.73;;;11.23;;
67997;SDS011;54773;53.388;-1.504;2023-04-22T04:18:49;20.88;;;10.93;;
67997;SDS011;54773;53.388;-1.504;2023-04-22T04:21:34;18.05;;;10.65;;
67997;SDS011;54773;53.388;-1.504;2023-04-22T04:24:18;18.55;;;11.02;;
67997;SDS011;54773;53.388;-1.504;2023-04-22T04:27:03;18.83;;;11.15;;
67997;SDS011;54773;53.388;-1.504;2023-04-22T04:29:47;18.73;;;10.93;;
67997;SDS011;54773;53.388;-1.504;2023-04-22T04:32:31;22.05;;;11.02;;
67997;SDS011;54773;53.388;-1.504;2023-04-22T04:35:18;17.88;;;10.77;;
67997;SDS011;54773;53.388;-1.504;2023-04-22T04:38:03;16.63;;;10.10;;
67997;SDS011;54773;53.388;-1.504;2023-04-22T04:40:48;18.10;;;10.70;;
67997;SDS011;54773;53.388;-1.504;2023-04-22T04:43:33;19.42;;;10.93;;
67997;SDS011;54773;53.388;-1.504;2023-04-22T04:46:18;20.15;;;10.90;;
67997;SDS011;54773;53.388;-1.504;2023-04-22T04:49:04;19.60;;;10.80;;
67997;SDS011;54773;53.388;-1.504;2023-04-22T04:51:49;18.65;;;11.00;;
67997;SDS011;54773;53.388;-1.504;2023-04-22T04:54:33;17.00;;;10.17;;
67997;SDS011;54773;53.388;-1.504;2023-04-22T04:57:17;18.48;;;10.43;;
67997;SDS011;54773;53.388;-1.504;2023-04-22T05:00:00;19.40;;;11.10;;
67997;SDS011;54773;53.388;-1.504;2023-04-22T05:05:29;19.20;;;10.75;;
67997;SDS011;54773;53.388;-1.504;2023-04-22T05:08:14;23.67;;;11.70;;
67997;SDS011;54773;53.388;-1.504;2023-04-22T05:10:58;18.48;;;11.02;;
67997;SDS011;54773;53.388;-1.504;2023-04-22T05:13:42;20.37;;;10.97;;
67997;SDS011;54773;53.388;-1.504;2023-04-22T05:16:26;23.63;;;11.57;;
67997;SDS011;54773;53.388;-1.504;2023-04-22T05:19:11;21.10;;;11.63;;
67997;SDS011;54773;53.388;-1.504;2023-04-22T05:21:55;19.80;;;11.05;;
67997;SDS011;54773;53.388;-1.504;2023-04-22T05:24:39;18.83;;;10.65;;
67997;SDS011;54773;53.388;-1.504;2023-04-22T05:27:23;19.15;;;10.93;;
67997;SDS011;54773;53.388;-1.504;2023-04-22T05:30:07;21.05;;;10.52;;
67997;SDS011;54773;53.388;-1.504;2023-04-22T05:32:51;20.58;;;11.57;;
67997;SDS011;54773;53.388;-1.504;2023-04-22T05:35:35;18.13;;;10.98;;
67997;SDS011;54773;53.388;-1.504;2023-04-22T05:38:19;18.30;;;11.02;;
67997;SDS011;54773;53.388;-1.504;2023-04-22T05:41:03;18.50;;;10.48;;
67997;SDS011;54773;53.388;-1.504;2023-04-22T05:43:47;16.80;;;10.13;;
67997;SDS011;54773;53.388;-1.504;2023-04-22T05:46:32;16.67;;;9.88;;
67997;SDS011;54773;53.388;-1.504;2023-04-22T05:49:16;18.75;;;9.93;;
67997;SDS011;54773;53.388;-1.504;2023-04-22T05:52:00;17.07;;;9.60;;
67997;SDS011;54773;53.388;-1.504;2023-04-22T05:57:30;20.35;;;11.50;;
67997;SDS011;54773;53.388;-1.504;2023-04-22T06:00:14;17.85;;;9.88;;
67997;SDS011;54773;53.388;-1.504;2023-04-22T06:02:59;18.50;;;10.40;;
67997;SDS011;54773;53.388;-1.504;2023-04-22T06:05:43;21.63;;;10.50;;
67997;SDS011;54773;53.388;-1.504;2023-04-22T06:08:28;20.47;;;11.27;;
67997;SDS011;54773;53.388;-1.504;2023-04-22T06:11:13;21.48;;;11.27;;
67997;SDS011;54773;53.388;-1.504;2023-04-22T06:13:57;24.07;;;12.07;;
67997;SDS011;54773;53.388;-1.504;2023-04-22T06:16:41;22.45;;;11.85;;
67997;SDS011;54773;53.388;-1.504;2023-04-22T06:19:25;20.67;;;11.93;;
67997;SDS011;54773;53.388;-1.504;2023-04-22T06:22:09;22.55;;;11.27;;
67997;SDS011;54773;53.388;-1.504;2023-04-22T06:24:54;24.27;;;13.25;;
67997;SDS011;54773;53.388;-1.504;2023-04-22T06:27:38;23.83;;;12.50;;
67997;SDS011;54773;53.388;-1.504;2023-04-22T06:30:22;24.23;;;12.23;;
67997;SDS011;54773;53.388;-1.504;2023-04-22T06:33:06;26.05;;;12.98;;
67997;SDS011;54773;53.388;-1.504;2023-04-22T06:35:50;22.70;;;12.63;;
67997;SDS011;54773;53.388;-1.504;2023-04-22T06:38:34;24.90;;;12.43;;
67997;SDS011;54773;53.388;-1.504;2023-04-22T06:41:18;20.88;;;11.25;;
67997;SDS011;54773;53.388;-1.504;2023-04-22T06:44:02;19.55;;;11.88;;
67997;SDS011;54773;53.388;-1.504;2023-04-22T06:46:46;20.92;;;11.70;;
67997;SDS011;54773;53.388;-1.504;2023-04-22T06:49:30;17.90;;;11.05;;
67997;SDS011;54773;53.388;-1.504;2023-04-22T06:52:14;17.98;;;10.88;;
67997;SDS011;54773;53.388;-1.504;2023-04-22T06:54:58;21.80;;;11.23;;
67997;SDS011;54773;53.388;-1.504;2023-04-22T06:57:42;20.97;;;10.27;;
67997;SDS011;54773;53.388;-1.504;2023-04-22T07:00:26;17.33;;;9.93;;
67997;SDS011;54773;53.388;-1.504;2023-04-22T07:03:11;15.52;;;8.32;;
67997;SDS011;54773;53.388;-1.504;2023-04-22T07:05:55;14.45;;;7.85;;
67997;SDS011;54773;53.388;-1.504;2023-04-22T07:08:39;15.07;;;8.05;;
67997;SDS011;54773;53.388;-1.504;2023-04-22T07:11:23;11.80;;;6.95;;
67997;SDS011;54773;53.388;-1.504;2023-04-22T07:14:08;11.50;;;6.13;;
67997;SDS011;54773;53.388;-1.504;2023-04-22T07:16:52;9.63;;;5.18;;
67997;SDS011;54773;53.388;-1.504;2023-04-22T07:19:37;9.15;;;4.60;;
67997;SDS011;54773;53.388;-1.504;2023-04-22T07:22:21;9.60;;;5.70;;
67997;SDS011;54773;53.388;-1.504;2023-04-22T07:25:05;9.23;;;5.03;;
67997;SDS011;54773;53.388;-1.504;2023-04-22T07:27:50;11.98;;;6.38;;
67997;SDS011;54773;53.388;-1.504;2023-04-22T07:30:34;14.50;;;7.60;;
67997;SDS011;54773;53.388;-1.504;2023-04-22T07:33:18;15.85;;;7.93;;
67997;SDS011;54773;53.388;-1.504;2023-04-22T07:36:03;15.60;;;9.48;;
67997;SDS011;54773;53.388;-1.504;2023-04-22T07:38:47;18.20;;;9.05;;
67997;SDS011;54773;53.388;-1.504;2023-04-22T07:41:31;22.10;;;11.15;;
67997;SDS011;54773;53.388;-1.504;2023-04-22T07:44:15;24.83;;;11.90;;
67997;SDS011;54773;53.388;-1.504;2023-04-22T07:47:03;23.50;;;12.80;;
67997;SDS011;54773;53.388;-1.504;2023-04-22T07:49:47;26.73;;;15.03;;
67997;SDS011;54773;53.388;-1.504;2023-04-22T07:52:31;25.77;;;13.43;;
67997;SDS011;54773;53.388;-1.504;2023-04-22T07:55:15;28.60;;;14.83;;
67997;SDS011;54773;53.388;-1.504;2023-04-22T07:57:59;27.73;;;15.20;;
67997;SDS011;54773;53.388;-1.504;2023-04-22T08:00:46;31.88;;;15.82;;
67997;SDS011;54773;53.388;-1.504;2023-04-22T08:03:30;27.30;;;14.97;;
67997;SDS011;54773;53.388;-1.504;2023-04-22T08:06:14;29.33;;;15.60;;
67997;SDS011;54773;53.388;-1.504;2023-04-22T08:08:58;27.30;;;15.07;;
67997;SDS011;54773;53.388;-1.504;2023-04-22T08:11:42;36.33;;;15.95;;
67997;SDS011;54773;53.388;-1.504;2023-04-22T08:14:25;29.63;;;15.73;;
67997;SDS011;54773;53.388;-1.504;2023-04-22T08:17:10;32.38;;;17.17;;
67997;SDS011;54773;53.388;-1.504;2023-04-22T08:19:54;31.10;;;15.93;;
67997;SDS011;54773;53.388;-1.504;2023-04-22T08:22:37;33.60;;;17.48;;
67997;SDS011;54773;53.388;-1.504;2023-04-22T08:25:21;37.40;;;19.20;;
67997;SDS011;54773;53.388;-1.504;2023-04-22T08:28:06;37.38;;;18.63;;
67997;SDS011;54773;53.388;-1.504;2023-04-22T08:30:50;39.07;;;18.87;;
67997;SDS011;54773;53.388;-1.504;2023-04-22T08:33:34;33.30;;;17.88;;
67997;SDS011;54773;53.388;-1.504;2023-04-22T08:36:18;35.05;;;18.23;;
67997;SDS011;54773;53.388;-1.504;2023-04-22T08:39:05;35.10;;;16.80;;
67997;SDS011;54773;53.388;-1.504;2023-04-22T08:41:49;36.08;;;17.73;;
67997;SDS011;54773;53.388;-1.504;2023-04-22T08:44:34;28.73;;;15.90;;
67997;SDS011;54773;53.388;-1.504;2023-04-22T08:47:18;29.37;;;14.50;;
67997;SDS011;54773;53.388;-1.504;2023-04-22T08:50:03;29.00;;;15.63;;
67997;SDS011;54773;53.388;-1.504;2023-04-22T08:52:49;31.30;;;15.60;;
67997;SDS011;54773;53.388;-1.504;2023-04-22T08:55:33;27.60;;;15.02;;
67997;SDS011;54773;53.388;-1.504;2023-04-22T08:58:18;25.83;;;14.55;;
67997;SDS011;54773;53.388;-1.504;2023-04-22T09:01:02;28.20;;;15.33;;
67997;SDS011;54773;53.388;-1.504;2023-04-22T09:03:46;26.60;;;14.67;;
67997;SDS011;54773;53.388;-1.504;2023-04-22T09:06:32;25.85;;;14.25;;
67997;SDS011;54773;53.388;-1.504;2023-04-22T09:09:16;27.77;;;15.05;;
67997;SDS011;54773;53.388;-1.504;2023-04-22T09:12:02;28.35;;;15.23;;
67997;SDS011;54773;53.388;-1.504;2023-04-22T09:14:47;33.05;;;17.10;;
67997;SDS011;54773;53.388;-1.504;2023-04-22T09:17:33;30.08;;;15.63;;
67997;SDS011;54773;53.388;-1.504;2023-04-22T09:20:24;27.27;;;15.60;;
67997;SDS011;54773;53.388;-1.504;2023-04-22T09:23:09;27.88;;;14.82;;
67997;SDS011;54773;53.388;-1.504;2023-04-22T09:25:55;27.33;;;14.20;;
67997;SDS011;54773;53.388;-1.504;2023-04-22T09:28:47;25.13;;;14.43;;
67997;SDS011;54773;53.388;-1.504;2023-04-22T09:31:34;30.05;;;14.43;;
67997;SDS011;54773;53.388;-1.504;2023-04-22T09:34:23;26.35;;;14.50;;
67997;SDS011;54773;53.388;-1.504;2023-04-22T09:37:11;25.90;;;13.48;;
67997;SDS011;54773;53.388;-1.504;2023-04-22T09:39:55;28.65;;;14.15;;
67997;SDS011;54773;53.388;-1.504;2023-04-22T09:42:46;22.35;;;12.35;;
67997;SDS011;54773;53.388;-1.504;2023-04-22T09:45:32;25.23;;;12.95;;
67997;SDS011;54773;53.388;-1.504;2023-04-22T09:48:25;24.53;;;13.93;;
67997;SDS011;54773;53.388;-1.504;2023-04-22T09:51:14;23.60;;;13.32;;
67997;SDS011;54773;53.388;-1.504;2023-04-22T09:54:03;24.58;;;12.98;;
67997;SDS011;54773;53.388;-1.504;2023-04-22T09:56:51;23.17;;;13.10;;
67997;SDS011;54773;53.388;-1.504;2023-04-22T09:59:36;18.73;;;10.32;;
67997;SDS011;54773;53.388;-1.504;2023-04-22T10:02:27;17.90;;;10.07;;
67997;SDS011;54773;53.388;-1.504;2023-04-22T10:05:11;19.35;;;10.57;;
67997;SDS011;54773;53.388;-1.504;2023-04-22T10:07:55;16.88;;;9.85;;
67997;SDS011;54773;53.388;-1.504;2023-04-22T10:10:39;17.73;;;10.07;;
67997;SDS011;54773;53.388;-1.504;2023-04-22T10:13:24;16.75;;;10.75;;
67997;SDS011;54773;53.388;-1.504;2023-04-22T10:16:08;18.88;;;11.35;;
67997;SDS011;54773;53.388;-1.504;2023-04-22T10:18:53;20.08;;;12.05;;
67997;SDS011;54773;53.388;-1.504;2023-04-22T10:21:39;21.08;;;11.40;;
67997;SDS011;54773;53.388;-1.504;2023-04-22T10:24:25;18.58;;;11.75;;
67997;SDS011;54773;53.388;-1.504;2023-04-22T10:27:10;18.23;;;11.27;;
67997;SDS011;54773;53.388;-1.504;2023-04-22T10:29:55;20.25;;;12.05;;
67997;SDS011;54773;53.388;-1.504;2023-04-22T10:32:40;19.10;;;9.07;;
67997;SDS011;54773;53.388;-1.504;2023-04-22T10:35:27;18.93;;;12.23;;
67997;SDS011;54773;53.388;-1.504;2023-04-22T10:38:12;17.70;;;11.23;;
67997;SDS011;54773;53.388;-1.504;2023-04-22T10:41:00;20.88;;;12.15;;
67997;SDS011;54773;53.388;-1.504;2023-04-22T10:43:45;21.80;;;11.63;;
67997;SDS011;54773;53.388;-1.504;2023-04-22T10:49:21;21.92;;;12.70;;
67997;SDS011;54773;53.388;-1.504;2023-04-22T10:52:06;21.48;;;12.40;;
67997;SDS011;54773;53.388;-1.504;2023-04-22T10:57:37;22.88;;;12.48;;
67997;SDS011;54773;53.388;-1.504;2023-04-22T11:00:39;22.77;;;12.73;;
67997;SDS011;54773;53.388;-1.504;2023-04-22T11:03:26;23.08;;;12.50;;
67997;SDS011;54773;53.388;-1.504;2023-04-22T11:06:11;20.42;;;12.25;;
67997;SDS011;54773;53.388;-1.504;2023-04-22T11:09:09;21.17;;;12.25;;
67997;SDS011;54773;53.388;-1.504;2023-04-22T11:15:22;19.95;;;12.27;;
67997;SDS011;54773;53.388;-1.504;2023-04-22T11:18:07;19.95;;;12.73;;
67997;SDS011;54773;53.388;-1.504;2023-04-22T11:20:53;21.05;;;12.30;;
67997;SDS011;54773;53.388;-1.504;2023-04-22T11:23:37;16.90;;;11.63;;
67997;SDS011;54773;53.388;-1.504;2023-04-22T11:26:31;22.20;;;12.30;;
67997;SDS011;54773;53.388;-1.504;2023-04-22T11:29:19;18.83;;;11.60;;
67997;SDS011;54773;53.388;-1.504;2023-04-22T11:32:03;16.67;;;10.60;;
67997;SDS011;54773;53.388;-1.504;2023-04-22T11:34:49;17.53;;;11.07;;
67997;SDS011;54773;53.388;-1.504;2023-04-22T11:37:41;17.48;;;10.95;;
67997;SDS011;54773;53.388;-1.504;2023-04-22T11:40:37;21.02;;;12.55;;
67997;SDS011;54773;53.388;-1.504;2023-04-22T11:43:22;17.20;;;10.77;;
67997;SDS011;54773;53.388;-1.504;2023-04-22T11:46:06;19.00;;;11.13;;
67997;SDS011;54773;53.388;-1.504;2023-04-22T11:48:51;19.23;;;11.93;;
67997;SDS011;54773;53.388;-1.504;2023-04-22T11:51:35;16.77;;;10.57;;
67997;SDS011;54773;53.388;-1.504;2023-04-22T11:54:32;18.77;;;10.90;;
67997;SDS011;54773;53.388;-1.504;2023-04-22T11:57:17;20.08;;;12.15;;
67997;SDS011;54773;53.388;-1.504;2023-04-22T12:00:04;19.35;;;11.93;;
67997;SDS011;54773;53.388;-1.504;2023-04-22T12:02:53;19.63;;;12.10;;
67997;SDS011;54773;53.388;-1.504;2023-04-22T12:08:31;18.73;;;11.40;;
67997;SDS011;54773;53.388;-1.504;2023-04-22T12:11:16;18.65;;;11.32;;
67997;SDS011;54773;53.388;-1.504;2023-04-22T12:14:06;19.80;;;11.60;;
67997;SDS011;54773;53.388;-1.504;2023-04-22T12:16:50;17.38;;;9.70;;
67997;SDS011;54773;53.388;-1.504;2023-04-22T12:19:34;15.93;;;10.13;;
67997;SDS011;54773;53.388;-1.504;2023-04-22T12:22:25;15.68;;;10.45;;
67997;SDS011;54773;53.388;-1.504;2023-04-22T12:25:16;18.33;;;10.95;;
67997;SDS011;54773;53.388;-1.504;2023-04-22T12:28:00;21.08;;;12.63;;
67997;SDS011;54773;53.388;-1.504;2023-04-22T12:30:44;19.87;;;12.37;;
67997;SDS011;54773;53.388;-1.504;2023-04-22T12:33:28;16.73;;;11.07;;
67997;SDS011;54773;53.388;-1.504;2023-04-22T12:36:12;17.33;;;10.55;;
67997;SDS011;54773;53.388;-1.504;2023-04-22T12:38:56;15.45;;;9.75;;
67997;SDS011;54773;53.388;-1.504;2023-04-22T12:41:40;13.47;;;8.60;;
67997;SDS011;54773;53.388;-1.504;2023-04-22T12:44:24;14.35;;;8.77;;
67997;SDS011;54773;53.388;-1.504;2023-04-22T12:47:08;15.13;;;9.53;;
67997;SDS011;54773;53.388;-1.504;2023-04-22T12:49:53;15.50;;;10.45;;
67997;SDS011;54773;53.388;-1.504;2023-04-22T12:52:37;17.88;;;10.43;;
67997;SDS011;54773;53.388;-1.504;2023-04-22T12:55:21;17.92;;;10.95;;
67997;SDS011;54773;53.388;-1.504;2023-04-22T12:58:05;17.00;;;10.25;;
67997;SDS011;54773;53.388;-1.504;2023-04-22T13:00:50;14.77;;;10.15;;
67997;SDS011;54773;53.388;-1.504;2023-04-22T13:03:34;15.43;;;10.10;;
67997;SDS011;54773;53.388;-1.504;2023-04-22T13:06:17;18.20;;;11.37;;
67997;SDS011;54773;53.388;-1.504;2023-04-22T13:09:01;18.47;;;11.27;;
67997;SDS011;54773;53.388;-1.504;2023-04-22T13:11:46;16.92;;;11.27;;
67997;SDS011;54773;53.388;-1.504;2023-04-22T13:14:32;16.95;;;11.02;;
67997;SDS011;54773;53.388;-1.504;2023-04-22T13:17:16;17.33;;;10.95;;
67997;SDS011;54773;53.388;-1.504;2023-04-22T13:20:00;17.02;;;11.13;;
67997;SDS011;54773;53.388;-1.504;2023-04-22T13:22:45;16.60;;;10.60;;
67997;SDS011;54773;53.388;-1.504;2023-04-22T13:25:30;16.85;;;10.65;;
67997;SDS011;54773;53.388;-1.504;2023-04-22T13:28:14;19.48;;;12.60;;
67997;SDS011;54773;53.388;-1.504;2023-04-22T13:30:58;19.05;;;12.27;;
67997;SDS011;54773;53.388;-1.504;2023-04-22T13:33:42;17.65;;;11.60;;
67997;SDS011;54773;53.388;-1.504;2023-04-22T13:36:27;16.60;;;11.25;;
67997;SDS011;54773;53.388;-1.504;2023-04-22T13:39:11;17.45;;;10.98;;
67997;SDS011;54773;53.388;-1.504;2023-04-22T13:41:56;18.45;;;11.38;;
67997;SDS011;54773;53.388;-1.504;2023-04-22T13:44:41;17.90;;;12.10;;
67997;SDS011;54773;53.388;-1.504;2023-04-22T13:47:28;16.52;;;10.75;;
67997;SDS011;54773;53.388;-1.504;2023-04-22T13:50:12;19.35;;;12.45;;
67997;SDS011;54773;53.388;-1.504;2023-04-22T13:52:57;21.25;;;11.70;;
67997;SDS011;54773;53.388;-1.504;2023-04-22T13:55:41;19.75;;;12.40;;
67997;SDS011;54773;53.388;-1.504;2023-04-22T13:58:26;19.35;;;11.82;;
67997;SDS011;54773;53.388;-1.504;2023-04-22T14:01:10;22.55;;;12.77;;
67997;SDS011;54773;53.388;-1.504;2023-04-22T14:03:53;19.10;;;11.75;;
67997;SDS011;54773;53.388;-1.504;2023-04-22T14:06:38;16.60;;;10.27;;
67997;SDS011;54773;53.388;-1.504;2023-04-22T14:09:21;19.70;;;11.68;;
67997;SDS011;54773;53.388;-1.504;2023-04-22T14:12:06;18.23;;;11.23;;
67997;SDS011;54773;53.388;-1.504;2023-04-22T14:14:50;17.50;;;10.63;;
67997;SDS011;54773;53.388;-1.504;2023-04-22T14:17:35;15.55;;;10.02;;
67997;SDS011;54773;53.388;-1.504;2023-04-22T14:20:19;15.60;;;9.70;;
67997;SDS011;54773;53.388;-1.504;2023-04-22T14:23:03;14.68;;;8.88;;
67997;SDS011;54773;53.388;-1.504;2023-04-22T14:25:47;15.47;;;8.67;;
67997;SDS011;54773;53.388;-1.504;2023-04-22T14:28:31;14.38;;;8.90;;
67997;SDS011;54773;53.388;-1.504;2023-04-22T14:31:16;12.27;;;8.27;;
67997;SDS011;54773;53.388;-1.504;2023-04-22T14:34:00;14.18;;;7.82;;
67997;SDS011;54773;53.388;-1.504;2023-04-22T14:36:43;12.73;;;7.77;;
67997;SDS011;54773;53.388;-1.504;2023-04-22T14:39:28;11.98;;;7.13;;
67997;SDS011;54773;53.388;-1.504;2023-04-22T14:42:12;12.95;;;7.07;;
67997;SDS011;54773;53.388;-1.504;2023-04-22T14:44:55;12.90;;;6.97;;
67997;SDS011;54773;53.388;-1.504;2023-04-22T14:47:39;10.60;;;6.75;;
67997;SDS011;54773;53.388;-1.504;2023-04-22T14:50:24;8.82;;;5.95;;
67997;SDS011;54773;53.388;-1.504;2023-04-22T14:53:10;10.43;;;6.50;;
67997;SDS011;54773;53.388;-1.504;2023-04-22T14:55:54;10.10;;;6.03;;
67997;SDS011;54773;53.388;-1.504;2023-04-22T14:58:39;11.65;;;7.38;;
67997;SDS011;54773;53.388;-1.504;2023-04-22T15:01:23;12.20;;;7.70;;
67997;SDS011;54773;53.388;-1.504;2023-04-22T15:04:07;12.27;;;7.80;;
67997;SDS011;54773;53.388;-1.504;2023-04-22T15:06:51;13.15;;;8.23;;
67997;SDS011;54773;53.388;-1.504;2023-04-22T15:09:39;12.43;;;7.82;;
67997;SDS011;54773;53.388;-1.504;2023-04-22T15:12:24;12.10;;;7.75;;
67997;SDS011;54773;53.388;-1.504;2023-04-22T15:15:08;11.38;;;7.32;;
67997;SDS011;54773;53.388;-1.504;2023-04-22T15:17:55;10.15;;;6.75;;
67997;SDS011;54773;53.388;-1.504;2023-04-22T15:20:39;13.45;;;7.28;;
67997;SDS011;54773;53.388;-1.504;2023-04-22T15:23:24;9.82;;;6.55;;
67997;SDS011;54773;53.388;-1.504;2023-04-22T15:26:08;11.52;;;7.70;;
67997;SDS011;54773;53.388;-1.504;2023-04-22T15:28:52;10.53;;;6.73;;
67997;SDS011;54773;53.388;-1.504;2023-04-22T15:31:36;9.25;;;6.15;;
67997;SDS011;54773;53.388;-1.504;2023-04-22T15:34:20;10.30;;;6.35;;
67997;SDS011;54773;53.388;-1.504;2023-04-22T15:37:04;12.00;;;6.82;;
67997;SDS011;54773;53.388;-1.504;2023-04-22T15:39:49;10.75;;;7.13;;
67997;SDS011;54773;53.388;-1.504;2023-04-22T15:42:40;11.10;;;6.65;;
67997;SDS011;54773;53.388;-1.504;2023-04-22T15:45:24;10.00;;;6.30;;
67997;SDS011;54773;53.388;-1.504;2023-04-22T15:48:08;9.57;;;6.40;;
67997;SDS011;54773;53.388;-1.504;2023-04-22T15:50:52;9.35;;;6.25;;
67997;SDS011;54773;53.388;-1.504;2023-04-22T15:53:36;9.50;;;5.73;;
67997;SDS011;54773;53.388;-1.504;2023-04-22T15:56:20;9.55;;;5.90;;
67997;SDS011;54773;53.388;-1.504;2023-04-22T15:59:05;9.55;;;6.40;;
67997;SDS011;54773;53.388;-1.504;2023-04-22T16:01:49;9.48;;;5.60;;
67997;SDS011;54773;53.388;-1.504;2023-04-22T16:04:33;9.63;;;5.97;;
67997;SDS011;54773;53.388;-1.504;2023-04-22T16:07:17;9.00;;;5.57;;
67997;SDS011;54773;53.388;-1.504;2023-04-22T16:10:01;8.15;;;5.55;;
67997;SDS011;54773;53.388;-1.504;2023-04-22T16:12:45;10.48;;;5.40;;
67997;SDS011;54773;53.388;-1.504;2023-04-22T16:15:29;7.97;;;5.47;;